createdAt,value
2018-07-04T00:00:50.167Z,0
2018-07-04T00:01:50.176Z,0
2018-07-04T00:02:49.902Z,0
2018-07-04T00:03:50.427Z,0
2018-07-04T00:04:50.486Z,0
2018-07-04T00:05:50.147Z,0
2018-07-04T00:06:50.139Z,0
2018-07-04T00:07:50.413Z,0
2018-07-04T00:08:49.923Z,0
2018-07-04T00:09:49.654Z,0
2018-07-04T00:10:50.192Z,0
2018-07-04T00:11:49.909Z,0
2018-07-04T00:12:49.910Z,0
2018-07-04T00:13:49.916Z,0
2018-07-04T00:14:49.921Z,0
2018-07-04T00:15:50.432Z,0
2018-07-04T00:16:50.480Z,0
2018-07-04T00:17:49.681Z,0
2018-07-04T00:18:50.473Z,0
2018-07-04T00:19:50.184Z,0
2018-07-04T00:20:50.469Z,0
2018-07-04T00:21:49.920Z,0
2018-07-04T00:22:49.929Z,0
2018-07-04T00:23:49.936Z,0
2018-07-04T00:24:50.208Z,0
2018-07-04T00:25:49.507Z,0
2018-07-04T00:26:50.179Z,0
2018-07-04T00:27:50.194Z,0
2018-07-04T00:28:51.028Z,0
2018-07-04T00:29:50.229Z,0
2018-07-04T00:30:50.266Z,0
2018-07-04T00:31:49.972Z,0
2018-07-04T00:32:49.986Z,0
2018-07-04T00:33:50.048Z,0
2018-07-04T00:34:50.227Z,0
2018-07-04T00:35:50.232Z,0
2018-07-04T00:36:49.972Z,0
2018-07-04T00:37:50.498Z,0
2018-07-04T00:38:49.986Z,0
2018-07-04T00:39:50.237Z,0
2018-07-04T00:40:50.533Z,0
2018-07-04T00:41:50.268Z,0
2018-07-04T00:42:50.243Z,0
2018-07-04T00:43:50.272Z,0
2018-07-04T00:44:49.755Z,0
2018-07-04T00:45:50.273Z,0
2018-07-04T00:46:50.507Z,0
2018-07-04T00:47:50.285Z,0
2018-07-04T00:48:50.299Z,0
2018-07-04T00:49:50.009Z,0
2018-07-04T00:50:50.536Z,0
2018-07-04T00:51:49.755Z,0
2018-07-04T00:52:50.020Z,0
2018-07-04T00:53:50.037Z,0
2018-07-04T00:54:50.042Z,0
2018-07-04T00:55:50.022Z,0
2018-07-04T00:56:50.306Z,0
2018-07-04T00:57:50.550Z,0
2018-07-04T00:58:51.920Z,0
2018-07-04T00:59:50.309Z,0
2018-07-04T01:00:50.332Z,0
2018-07-04T01:01:50.320Z,0
2018-07-04T01:02:50.295Z,0
2018-07-04T01:03:50.554Z,0
2018-07-04T01:04:50.060Z,0
2018-07-04T01:05:50.081Z,0
2018-07-04T01:06:50.062Z,0
2018-07-04T01:07:50.068Z,0
2018-07-04T01:08:49.804Z,0
2018-07-04T01:09:51.361Z,0
2018-07-04T01:10:50.596Z,0
2018-07-04T01:11:50.108Z,0
2018-07-04T01:12:50.583Z,0
2018-07-04T01:13:50.334Z,0
2018-07-04T01:14:49.823Z,0
2018-07-04T01:15:50.341Z,0
2018-07-04T01:16:50.084Z,0
2018-07-04T01:17:50.088Z,0
2018-07-04T01:18:50.105Z,0
2018-07-04T01:19:50.077Z,0
2018-07-04T01:20:50.356Z,0
2018-07-04T01:21:50.088Z,0
2018-07-04T01:22:50.104Z,0
2018-07-04T01:23:50.086Z,0
2018-07-04T01:24:50.114Z,0
2018-07-04T01:25:50.088Z,0
2018-07-04T01:26:50.604Z,0
2018-07-04T01:27:50.375Z,0
2018-07-04T01:28:49.877Z,0
2018-07-04T01:29:51.185Z,0
2018-07-04T01:30:50.130Z,0
2018-07-04T01:31:50.408Z,0
2018-07-04T01:32:50.334Z,0
2018-07-04T01:33:50.404Z,0
2018-07-04T01:34:50.132Z,0
2018-07-04T01:35:50.647Z,0
2018-07-04T01:36:50.145Z,0
2018-07-04T01:37:50.404Z,0
2018-07-04T01:38:50.630Z,0
2018-07-04T01:39:50.409Z,0
2018-07-04T01:40:50.669Z,0
2018-07-04T01:41:50.134Z,0
2018-07-04T01:42:50.642Z,0
2018-07-04T01:43:50.399Z,0
2018-07-04T01:44:50.419Z,0
2018-07-04T01:45:50.654Z,0
2018-07-04T01:46:50.147Z,0
2018-07-04T01:47:50.161Z,0
2018-07-04T01:48:50.414Z,0
2018-07-04T01:49:50.675Z,0
2018-07-04T01:50:50.450Z,0
2018-07-04T01:51:50.407Z,0
2018-07-04T01:52:50.658Z,0
2018-07-04T01:53:50.182Z,0
2018-07-04T01:54:50.667Z,0
2018-07-04T01:55:50.683Z,0
2018-07-04T01:56:50.471Z,0
2018-07-04T01:57:50.198Z,0
2018-07-04T01:58:50.459Z,0
2018-07-04T01:59:50.925Z,0
2018-07-04T02:00:50.208Z,0
2018-07-04T02:01:49.940Z,0
2018-07-04T02:02:50.237Z,0
2018-07-04T02:03:50.461Z,0
2018-07-04T02:04:50.199Z,0
2018-07-04T02:05:50.710Z,0
2018-07-04T02:06:50.209Z,0
2018-07-04T02:07:50.215Z,0
2018-07-04T02:08:49.964Z,0
2018-07-04T02:09:50.458Z,0
2018-07-04T02:10:50.484Z,0
2018-07-04T02:11:49.983Z,0
2018-07-04T02:12:50.203Z,0
2018-07-04T02:13:50.249Z,0
2018-07-04T02:14:50.489Z,0
2018-07-04T02:15:50.733Z,0
2018-07-04T02:16:49.983Z,0
2018-07-04T02:17:50.485Z,0
2018-07-04T02:18:50.504Z,0
2018-07-04T02:19:50.477Z,0
2018-07-04T02:20:50.512Z,0
2018-07-04T02:21:50.000Z,0
2018-07-04T02:22:50.739Z,0
2018-07-04T02:23:50.253Z,0
2018-07-04T02:24:50.504Z,0
2018-07-04T02:25:50.747Z,0
2018-07-04T02:26:50.530Z,0
2018-07-04T02:27:50.298Z,0
2018-07-04T02:28:50.763Z,0
2018-07-04T02:29:51.296Z,0
2018-07-04T02:30:50.778Z,0
2018-07-04T02:31:50.000Z,0
2018-07-04T02:32:50.255Z,0
2018-07-04T02:33:50.529Z,0
2018-07-04T02:34:50.290Z,0
2018-07-04T02:35:50.273Z,0
2018-07-04T02:36:50.531Z,0
2018-07-04T02:37:50.282Z,0
2018-07-04T02:38:50.300Z,0
2018-07-04T02:39:50.293Z,0
2018-07-04T02:40:50.559Z,0
2018-07-04T02:41:50.037Z,0
2018-07-04T02:42:50.546Z,0
2018-07-04T02:43:50.541Z,0
2018-07-04T02:44:50.832Z,0
2018-07-04T02:45:50.532Z,0
2018-07-04T02:46:50.555Z,0
2018-07-04T02:47:50.548Z,0
2018-07-04T02:48:50.556Z,0
2018-07-04T02:49:50.821Z,0
2018-07-04T02:50:50.637Z,0
2018-07-04T02:51:50.310Z,0
2018-07-04T02:52:50.316Z,0
2018-07-04T02:53:50.577Z,0
2018-07-04T02:54:50.547Z,0
2018-07-04T02:55:50.321Z,0
2018-07-04T02:56:50.573Z,0
2018-07-04T02:57:50.364Z,0
2018-07-04T02:58:50.573Z,0
2018-07-04T02:59:51.052Z,0
2018-07-04T03:00:50.826Z,0
2018-07-04T03:01:50.565Z,0
2018-07-04T03:02:50.333Z,0
2018-07-04T03:03:50.850Z,0
2018-07-04T03:04:50.316Z,0
2018-07-04T03:05:50.825Z,0
2018-07-04T03:06:50.825Z,0
2018-07-04T03:07:50.843Z,0
2018-07-04T03:08:50.087Z,0
2018-07-04T03:09:50.332Z,0
2018-07-04T03:10:50.332Z,0
2018-07-04T03:11:50.596Z,0
2018-07-04T03:12:50.570Z,0
2018-07-04T03:13:50.338Z,0
2018-07-04T03:14:50.583Z,0
2018-07-04T03:15:50.854Z,0
2018-07-04T03:16:50.337Z,0
2018-07-04T03:17:50.615Z,0
2018-07-04T03:18:50.882Z,5
2018-07-04T03:19:50.602Z,5
2018-07-04T03:20:50.341Z,5
2018-07-04T03:21:50.847Z,5
2018-07-04T03:22:50.858Z,5
2018-07-04T03:23:50.634Z,5
2018-07-04T03:24:50.847Z,5
2018-07-04T03:25:50.607Z,5
2018-07-04T03:26:50.600Z,5
2018-07-04T03:27:50.092Z,5
2018-07-04T03:28:50.376Z,5
2018-07-04T03:29:50.374Z,5
2018-07-04T03:30:53.818Z,10
2018-07-04T03:31:50.622Z,10
2018-07-04T03:32:50.613Z,10
2018-07-04T03:33:50.631Z,10
2018-07-04T03:34:50.100Z,10
2018-07-04T03:35:50.387Z,10
2018-07-04T03:36:50.377Z,10
2018-07-04T03:37:50.385Z,15
2018-07-04T03:38:50.375Z,15
2018-07-04T03:39:50.618Z,15
2018-07-04T03:40:50.639Z,15
2018-07-04T03:41:50.380Z,20
2018-07-04T03:42:50.138Z,20
2018-07-04T03:43:50.895Z,20
2018-07-04T03:44:50.134Z,20
2018-07-04T03:45:50.655Z,25
2018-07-04T03:46:50.628Z,25
2018-07-04T03:47:50.651Z,25
2018-07-04T03:48:50.696Z,30
2018-07-04T03:49:50.725Z,30
2018-07-04T03:50:51.285Z,30
2018-07-04T03:51:50.381Z,35
2018-07-04T03:52:50.176Z,35
2018-07-04T03:53:50.922Z,40
2018-07-04T03:54:50.392Z,40
2018-07-04T03:55:50.390Z,40
2018-07-04T03:56:50.674Z,40
2018-07-04T03:57:50.899Z,40
2018-07-04T03:58:50.413Z,40
2018-07-04T03:59:50.663Z,45
2018-07-04T04:00:50.427Z,45
2018-07-04T04:01:50.662Z,45
2018-07-04T04:02:50.408Z,50
2018-07-04T04:03:50.680Z,50
2018-07-04T04:04:50.661Z,55
2018-07-04T04:05:50.675Z,55
2018-07-04T04:06:50.415Z,60
2018-07-04T04:07:50.685Z,60
2018-07-04T04:08:50.704Z,65
2018-07-04T04:09:50.931Z,65
2018-07-04T04:10:50.961Z,70
2018-07-04T04:11:50.947Z,75
2018-07-04T04:12:50.946Z,75
2018-07-04T04:13:50.948Z,80
2018-07-04T04:14:50.445Z,80
2018-07-04T04:15:50.204Z,90
2018-07-04T04:16:50.685Z,95
2018-07-04T04:17:51.019Z,95
2018-07-04T04:18:50.458Z,95
2018-07-04T04:19:50.821Z,105
2018-07-04T04:20:50.708Z,105
2018-07-04T04:21:50.696Z,115
2018-07-04T04:22:50.221Z,125
2018-07-04T04:23:50.754Z,145
2018-07-04T04:24:50.736Z,165
2018-07-04T04:25:51.028Z,185
2018-07-04T04:26:50.476Z,195
2018-07-04T04:27:50.701Z,200
2018-07-04T04:28:50.996Z,215
2018-07-04T04:29:50.729Z,240
2018-07-04T04:30:50.502Z,245
2018-07-04T04:31:50.482Z,250
2018-07-04T04:32:50.470Z,235
2018-07-04T04:33:50.807Z,215
2018-07-04T04:34:50.480Z,215
2018-07-04T04:35:50.994Z,250
2018-07-04T04:36:50.514Z,275
2018-07-04T04:37:50.999Z,280
2018-07-04T04:38:50.025Z,280
2018-07-04T04:39:50.766Z,285
2018-07-04T04:40:50.512Z,285
2018-07-04T04:41:50.501Z,290
2018-07-04T04:42:50.774Z,290
2018-07-04T04:43:50.518Z,295
2018-07-04T04:44:50.551Z,305
2018-07-04T04:45:50.532Z,305
2018-07-04T04:46:50.797Z,300
2018-07-04T04:47:50.044Z,300
2018-07-04T04:48:50.812Z,290
2018-07-04T04:49:51.094Z,280
2018-07-04T04:50:50.815Z,295
2018-07-04T04:51:50.543Z,310
2018-07-04T04:52:51.060Z,320
2018-07-04T04:53:50.596Z,310
2018-07-04T04:54:51.040Z,240
2018-07-04T04:55:50.842Z,285
2018-07-04T04:56:50.350Z,315
2018-07-04T04:57:50.867Z,325
2018-07-04T04:58:50.598Z,310
2018-07-04T04:59:50.620Z,305
2018-07-04T05:00:51.136Z,305
2018-07-04T05:01:51.690Z,310
2018-07-04T05:02:50.623Z,185
2018-07-04T05:03:51.143Z,170
2018-07-04T05:04:50.877Z,170
2018-07-04T05:05:50.890Z,170
2018-07-04T05:06:50.884Z,170
2018-07-04T05:07:50.770Z,170
2018-07-04T05:08:50.404Z,170
2018-07-04T05:09:50.664Z,170
2018-07-04T05:10:50.696Z,170
2018-07-04T05:11:50.666Z,170
2018-07-04T05:12:50.931Z,170
2018-07-04T05:13:51.204Z,170
2018-07-04T05:14:50.933Z,165
2018-07-04T05:15:51.150Z,160
2018-07-04T05:16:51.195Z,160
2018-07-04T05:17:50.705Z,160
2018-07-04T05:18:50.964Z,160
2018-07-04T05:19:50.958Z,160
2018-07-04T05:20:51.219Z,160
2018-07-04T05:21:50.707Z,155
2018-07-04T05:22:51.030Z,155
2018-07-04T05:23:50.995Z,155
2018-07-04T05:24:51.018Z,155
2018-07-04T05:25:50.740Z,155
2018-07-04T05:26:51.264Z,160
2018-07-04T05:27:50.492Z,155
2018-07-04T05:28:50.732Z,165
2018-07-04T05:29:51.260Z,160
2018-07-04T05:30:51.014Z,160
2018-07-04T05:31:51.796Z,160
2018-07-04T05:32:51.017Z,165
2018-07-04T05:33:50.497Z,165
2018-07-04T05:34:50.995Z,170
2018-07-04T05:35:51.014Z,180
2018-07-04T05:36:51.028Z,180
2018-07-04T05:37:51.019Z,185
2018-07-04T05:38:50.768Z,185
2018-07-04T05:39:50.772Z,190
2018-07-04T05:40:51.412Z,200
2018-07-04T05:41:51.053Z,210
2018-07-04T05:42:51.305Z,215
2018-07-04T05:43:50.799Z,220
2018-07-04T05:44:51.053Z,225
2018-07-04T05:45:50.798Z,230
2018-07-04T05:46:51.300Z,230
2018-07-04T05:47:50.887Z,240
2018-07-04T05:48:50.573Z,245
2018-07-04T05:49:51.121Z,255
2018-07-04T05:50:50.841Z,265
2018-07-04T05:51:51.071Z,270
2018-07-04T05:52:50.582Z,270
2018-07-04T05:53:51.089Z,280
2018-07-04T05:54:51.362Z,285
2018-07-04T05:55:51.409Z,310
2018-07-04T05:56:51.885Z,310
2018-07-04T05:57:51.128Z,310
2018-07-04T05:58:51.106Z,340
2018-07-04T05:59:51.127Z,340
2018-07-04T06:00:50.871Z,355
2018-07-04T06:01:51.111Z,365
2018-07-04T06:02:51.535Z,370
2018-07-04T06:03:51.129Z,340
2018-07-04T06:04:51.390Z,355
2018-07-04T06:05:51.459Z,355
2018-07-04T06:06:51.135Z,365
2018-07-04T06:07:51.392Z,320
2018-07-04T06:08:50.915Z,340
2018-07-04T06:09:51.174Z,365
2018-07-04T06:10:50.894Z,400
2018-07-04T06:11:51.436Z,400
2018-07-04T06:12:50.910Z,365
2018-07-04T06:13:51.179Z,335
2018-07-04T06:23:53.170Z,250
2018-07-04T06:24:53.637Z,250
2018-07-04T06:25:53.430Z,265
2018-07-04T06:26:53.171Z,290
2018-07-04T06:27:53.442Z,325
2018-07-04T06:28:53.426Z,350
2018-07-04T06:29:53.180Z,320
2018-07-04T06:30:53.193Z,315
2018-07-04T06:31:53.201Z,310
2018-07-04T06:32:53.456Z,365
2018-07-04T06:33:53.506Z,385
2018-07-04T06:34:53.194Z,430
2018-07-04T06:35:53.214Z,405
2018-07-04T06:36:53.472Z,385
2018-07-04T06:37:53.253Z,380
2018-07-04T06:38:53.507Z,380
2018-07-04T06:39:53.587Z,390
2018-07-04T06:40:53.245Z,400
2018-07-04T06:41:53.246Z,400
2018-07-04T06:42:53.288Z,385
2018-07-04T06:43:53.289Z,370
2018-07-04T06:44:53.007Z,350
2018-07-04T06:45:53.267Z,365
2018-07-04T06:46:53.012Z,365
2018-07-04T06:47:53.541Z,365
2018-07-04T06:48:53.171Z,365
2018-07-04T06:49:53.530Z,335
2018-07-04T06:50:53.315Z,370
2018-07-04T06:51:53.563Z,400
2018-07-04T06:52:53.323Z,390
2018-07-04T06:53:53.579Z,395
2018-07-04T06:54:53.577Z,395
2018-07-04T06:55:53.088Z,375
2018-07-04T06:56:53.419Z,370
2018-07-04T06:57:53.606Z,380
2018-07-04T06:58:53.115Z,395
2018-07-04T06:59:53.389Z,420
2018-07-04T07:00:53.122Z,430
2018-07-04T07:01:53.458Z,445
2018-07-04T07:02:53.667Z,460
2018-07-04T07:03:53.662Z,470
2018-07-04T07:04:53.404Z,470
2018-07-04T07:05:53.402Z,465
2018-07-04T07:06:53.416Z,455
2018-07-04T07:07:53.195Z,455
2018-07-04T07:08:53.201Z,460
2018-07-04T07:09:53.745Z,455
2018-07-04T07:10:53.196Z,450
2018-07-04T07:11:53.463Z,445
2018-07-04T07:12:53.730Z,445
2018-07-04T07:13:53.206Z,445
2018-07-04T07:14:52.997Z,440
2018-07-04T07:15:53.507Z,415
2018-07-04T07:16:53.798Z,410
2018-07-04T07:17:53.761Z,410
2018-07-04T07:18:53.516Z,440
2018-07-04T07:19:53.777Z,445
2018-07-04T07:20:53.274Z,470
2018-07-04T07:21:53.310Z,470
2018-07-04T07:22:53.323Z,470
2018-07-04T07:23:53.568Z,485
2018-07-04T07:24:53.821Z,480
2018-07-04T07:25:53.577Z,485
2018-07-04T07:26:53.621Z,480
2018-07-04T07:27:53.602Z,475
2018-07-04T07:28:53.336Z,485
2018-07-04T07:29:53.607Z,480
2018-07-04T07:30:53.645Z,475
2018-07-04T07:31:53.620Z,475
2018-07-04T07:32:53.637Z,465
2018-07-04T07:33:53.205Z,470
2018-07-04T07:34:53.397Z,480
2018-07-04T07:35:53.670Z,490
2018-07-04T07:36:53.681Z,490
2018-07-04T07:37:53.206Z,490
2018-07-04T07:38:53.199Z,490
2018-07-04T07:39:53.455Z,490
2018-07-04T07:40:53.213Z,490
2018-07-04T07:41:53.793Z,490
2018-07-04T07:42:53.484Z,490
2018-07-04T07:43:53.742Z,490
2018-07-04T07:44:53.771Z,490
2018-07-04T07:45:53.516Z,490
2018-07-04T07:46:53.530Z,485
2018-07-04T07:47:53.555Z,485
2018-07-04T07:48:54.396Z,490
2018-07-04T07:49:53.558Z,485
2018-07-04T07:50:53.562Z,485
2018-07-04T07:51:53.832Z,490
2018-07-04T07:52:53.587Z,485
2018-07-04T07:53:53.599Z,485
2018-07-04T07:54:54.185Z,490
2018-07-04T07:55:53.875Z,485
2018-07-04T07:56:53.882Z,485
2018-07-04T07:57:54.188Z,475
2018-07-04T07:58:53.408Z,480
2018-07-04T07:59:53.667Z,480
2018-07-04T08:00:53.680Z,475
2018-07-04T08:01:54.182Z,475
2018-07-04T08:02:53.704Z,475
2018-07-04T08:03:53.731Z,470
2018-07-04T08:04:53.729Z,470
2018-07-04T08:05:54.158Z,470
2018-07-04T08:06:53.750Z,465
2018-07-04T08:07:53.751Z,465
2018-07-04T08:08:55.314Z,465
2018-07-04T08:09:53.801Z,460
2018-07-04T08:10:54.042Z,460
2018-07-04T08:11:54.294Z,460
2018-07-04T08:12:54.190Z,470
2018-07-04T08:13:53.812Z,465
2018-07-04T08:14:54.326Z,460
2018-07-04T08:15:54.357Z,455
2018-07-04T08:16:54.364Z,445
2018-07-04T08:17:53.871Z,440
2018-07-04T08:18:54.418Z,445
2018-07-04T08:19:54.393Z,450
2018-07-04T08:20:54.144Z,450
2018-07-04T08:21:54.164Z,455
2018-07-04T08:22:54.412Z,455
2018-07-04T08:23:54.180Z,440
2018-07-04T08:24:53.937Z,425
2018-07-04T08:25:53.966Z,420
2018-07-04T08:26:54.247Z,420
2018-07-04T08:27:54.236Z,390
2018-07-04T08:28:53.995Z,410
2018-07-04T08:29:54.260Z,395
2018-07-04T08:30:53.997Z,385
2018-07-04T08:31:54.388Z,395
2018-07-04T08:32:54.320Z,370
2018-07-04T08:33:54.100Z,360
2018-07-04T08:34:54.052Z,350
2018-07-04T08:35:53.547Z,365
2018-07-04T08:36:54.074Z,370
2018-07-04T08:37:54.334Z,380
2018-07-04T08:38:54.191Z,380
2018-07-04T08:39:54.352Z,350
2018-07-04T08:40:54.483Z,345
2018-07-04T08:41:54.124Z,330
2018-07-04T08:42:54.618Z,305
2018-07-04T08:43:54.386Z,325
2018-07-04T08:44:54.543Z,330
2018-07-04T08:45:53.963Z,325
2018-07-04T08:46:54.650Z,325
2018-07-04T08:47:54.184Z,325
2018-07-04T08:48:54.424Z,340
2018-07-04T08:49:53.927Z,345
2018-07-04T08:50:54.989Z,340
2018-07-04T08:51:53.941Z,335
2018-07-04T08:52:54.013Z,335
2018-07-04T08:53:54.486Z,340
2018-07-04T08:54:53.967Z,340
2018-07-04T08:55:54.488Z,355
2018-07-04T08:56:53.988Z,335
2018-07-04T08:57:54.482Z,340
2018-07-04T08:58:54.264Z,365
2018-07-04T08:59:54.006Z,385
2018-07-04T09:00:54.762Z,395
2018-07-04T09:01:54.006Z,400
2018-07-04T09:02:54.269Z,400
2018-07-04T09:03:54.771Z,405
2018-07-04T09:04:54.534Z,400
2018-07-04T09:05:54.028Z,410
2018-07-04T09:06:54.601Z,395
2018-07-04T09:07:54.567Z,385
2018-07-04T09:08:54.579Z,370
2018-07-04T09:09:54.589Z,365
2018-07-04T09:10:54.344Z,365
2018-07-04T09:11:54.942Z,370
2018-07-04T09:12:54.602Z,380
2018-07-04T09:13:54.612Z,380
2018-07-04T09:14:54.381Z,375
2018-07-04T09:15:54.877Z,375
2018-07-04T09:16:54.657Z,375
2018-07-04T09:17:54.642Z,375
2018-07-04T09:18:54.904Z,360
2018-07-04T09:19:54.706Z,360
2018-07-04T09:20:54.673Z,360
2018-07-04T09:21:54.224Z,360
2018-07-04T09:22:54.176Z,365
2018-07-04T09:23:54.948Z,345
2018-07-04T09:24:54.445Z,320
2018-07-04T09:25:54.725Z,310
2018-07-04T09:26:54.468Z,310
2018-07-04T09:27:54.466Z,285
2018-07-04T09:28:54.718Z,275
2018-07-04T09:29:54.489Z,275
2018-07-04T09:30:54.781Z,265
2018-07-04T09:31:54.542Z,260
2018-07-04T09:32:54.287Z,255
2018-07-04T09:33:54.571Z,250
2018-07-04T09:34:54.792Z,245
2018-07-04T09:35:55.053Z,240
2018-07-04T09:36:55.057Z,235
2018-07-04T09:37:54.555Z,230
2018-07-04T09:38:54.843Z,230
2018-07-04T09:39:54.563Z,220
2018-07-04T09:40:54.865Z,215
2018-07-04T09:41:54.847Z,205
2018-07-04T09:42:54.575Z,200
2018-07-04T09:43:54.721Z,195
2018-07-04T09:44:54.986Z,185
2018-07-04T09:45:54.843Z,180
2018-07-04T09:46:54.625Z,170
2018-07-04T09:47:54.988Z,160
2018-07-04T09:48:55.159Z,155
2018-07-04T09:49:55.321Z,145
2018-07-04T09:50:54.615Z,135
2018-07-04T09:51:54.664Z,130
2018-07-04T09:52:54.935Z,120
2018-07-04T09:53:54.656Z,115
2018-07-04T09:54:54.146Z,105
2018-07-04T09:55:54.149Z,95
2018-07-04T09:56:54.669Z,90
2018-07-04T09:57:54.663Z,80
2018-07-04T09:58:55.503Z,80
2018-07-04T09:59:54.937Z,75
2018-07-04T10:00:54.946Z,70
2018-07-04T10:01:55.210Z,65
2018-07-04T10:02:54.949Z,65
2018-07-04T10:03:54.986Z,60
2018-07-04T10:04:54.963Z,55
2018-07-04T10:05:55.050Z,50
2018-07-04T10:06:54.984Z,45
2018-07-04T10:07:54.973Z,45
2018-07-04T10:08:55.015Z,40
2018-07-04T10:09:54.751Z,40
2018-07-04T10:10:54.752Z,40
2018-07-04T10:11:55.006Z,45
2018-07-04T10:12:54.764Z,50
2018-07-04T10:13:54.760Z,45
2018-07-04T10:14:54.264Z,40
2018-07-04T10:15:54.515Z,40
2018-07-04T10:16:54.804Z,35
2018-07-04T10:17:54.522Z,30
2018-07-04T10:18:55.056Z,30
2018-07-04T10:19:54.795Z,25
2018-07-04T10:20:55.071Z,20
2018-07-04T10:21:54.813Z,20
2018-07-04T10:22:55.129Z,20
2018-07-04T10:54:14.661Z,15
2018-07-04T10:55:14.139Z,15
2018-07-04T10:56:14.385Z,15
2018-07-04T10:57:14.904Z,15
2018-07-04T10:58:14.384Z,15
2018-07-04T10:59:14.896Z,15
2018-07-04T11:00:14.402Z,15
2018-07-04T11:01:14.896Z,15
2018-07-04T11:02:14.630Z,20
2018-07-04T11:03:14.885Z,20
2018-07-04T11:04:15.137Z,20
2018-07-04T11:05:14.900Z,20
2018-07-04T11:06:14.895Z,20
2018-07-04T11:07:14.897Z,20
2018-07-04T11:08:14.390Z,25
2018-07-04T11:09:14.145Z,25
2018-07-04T11:10:14.644Z,25
2018-07-04T11:11:14.956Z,25
2018-07-04T11:12:14.645Z,30
2018-07-04T11:13:14.434Z,30
2018-07-04T11:14:14.141Z,30
2018-07-04T11:15:14.657Z,35
2018-07-04T11:16:14.642Z,35
2018-07-04T11:17:15.149Z,35
2018-07-04T11:18:14.659Z,40
2018-07-04T11:19:14.938Z,40
2018-07-04T11:20:14.439Z,45
2018-07-04T11:21:14.907Z,45
2018-07-04T11:22:14.979Z,45
2018-07-04T11:23:14.180Z,50
2018-07-04T11:24:14.719Z,50
2018-07-04T11:25:14.696Z,50
2018-07-04T11:26:14.972Z,55
2018-07-04T11:27:14.919Z,55
2018-07-04T11:28:14.680Z,55
2018-07-04T11:29:14.932Z,60
2018-07-04T11:30:14.456Z,60
2018-07-04T11:31:15.195Z,60
2018-07-04T11:32:14.937Z,65
2018-07-04T11:33:14.686Z,65
2018-07-04T11:34:14.725Z,70
2018-07-04T11:35:14.462Z,70
2018-07-04T11:36:15.251Z,70
2018-07-04T11:37:14.974Z,75
2018-07-04T11:38:14.987Z,75
2018-07-04T11:39:14.464Z,75
2018-07-04T11:40:14.974Z,80
2018-07-04T11:41:14.982Z,85
2018-07-04T11:42:14.698Z,85
2018-07-04T11:43:15.212Z,90
2018-07-04T11:44:14.472Z,100
2018-07-04T11:45:14.979Z,105
2018-07-04T11:46:14.487Z,110
2018-07-04T11:47:14.491Z,115
2018-07-04T11:48:14.717Z,120
2018-07-04T11:49:15.293Z,125
2018-07-04T11:50:15.251Z,135
2018-07-04T11:51:14.991Z,140
2018-07-04T11:52:15.001Z,150
2018-07-04T11:53:14.890Z,160
2018-07-04T11:54:15.051Z,165
2018-07-04T11:55:15.319Z,175
2018-07-04T11:56:14.782Z,185
2018-07-04T11:57:15.977Z,195
2018-07-04T11:58:14.248Z,205
2018-07-04T11:59:15.305Z,220
2018-07-04T12:00:15.034Z,235
2018-07-04T12:01:14.518Z,245
2018-07-04T12:02:15.024Z,260
2018-07-04T12:03:14.781Z,280
2018-07-04T12:04:14.794Z,290
2018-07-04T12:05:15.055Z,310
2018-07-04T12:06:14.307Z,325
2018-07-04T12:07:15.036Z,335
2018-07-04T12:08:15.057Z,355
2018-07-04T12:09:14.805Z,370
2018-07-04T12:10:15.074Z,380
2018-07-04T12:11:14.815Z,395
2018-07-04T12:12:14.814Z,410
2018-07-04T12:13:15.328Z,420
2018-07-04T12:14:14.839Z,430
2018-07-04T12:15:15.319Z,435
2018-07-04T12:16:14.828Z,440
2018-07-04T12:17:14.561Z,445
2018-07-04T12:18:14.827Z,450
2018-07-04T12:19:15.628Z,455
2018-07-04T12:20:15.363Z,450
2018-07-04T12:21:15.104Z,455
2018-07-04T12:22:14.844Z,445
2018-07-04T12:23:15.128Z,445
2018-07-04T12:24:15.131Z,435
2018-07-04T12:25:14.867Z,430
2018-07-04T12:26:15.137Z,430
2018-07-04T12:27:15.155Z,425
2018-07-04T12:28:14.894Z,425
2018-07-04T12:29:15.136Z,410
2018-07-04T12:30:14.378Z,405
2018-07-04T12:31:15.188Z,405
2018-07-04T12:32:14.655Z,405
2018-07-04T12:33:14.424Z,400
2018-07-04T12:34:14.659Z,400
2018-07-04T12:35:15.166Z,400
2018-07-04T12:36:15.166Z,400
2018-07-04T12:37:14.667Z,395
2018-07-04T12:38:15.213Z,385
2018-07-04T12:39:14.691Z,390
2018-07-04T12:40:14.936Z,385
2018-07-04T12:41:14.937Z,385
2018-07-04T12:42:14.691Z,385
2018-07-04T12:43:15.224Z,385
2018-07-04T12:44:14.722Z,385
2018-07-04T12:45:15.021Z,380
2018-07-04T12:46:14.997Z,380
2018-07-04T12:47:15.191Z,380
2018-07-04T12:48:15.065Z,380
2018-07-04T12:49:14.750Z,380
2018-07-04T12:50:15.038Z,380
2018-07-04T12:51:15.529Z,380
2018-07-04T12:52:15.025Z,375
2018-07-04T12:53:15.287Z,380
2018-07-04T12:54:16.686Z,375
2018-07-04T12:55:15.574Z,365
2018-07-04T12:56:15.556Z,370
2018-07-04T12:57:15.326Z,365
2018-07-04T12:58:15.319Z,365
2018-07-04T12:59:16.364Z,365
2018-07-04T13:00:15.570Z,365
2018-07-04T13:01:15.357Z,365
2018-07-04T13:02:15.112Z,370
2018-07-04T13:03:15.149Z,365
2018-07-04T13:04:14.860Z,370
2018-07-04T13:05:15.366Z,375
2018-07-04T13:06:15.387Z,370
2018-07-04T13:07:15.372Z,380
2018-07-04T13:08:15.120Z,395
2018-07-04T13:09:15.926Z,395
2018-07-04T13:10:15.396Z,395
2018-07-04T13:11:15.642Z,400
2018-07-04T13:12:15.139Z,400
2018-07-04T13:13:15.144Z,395
2018-07-04T13:14:15.146Z,395
2018-07-04T13:15:15.159Z,395
2018-07-04T13:16:15.935Z,390
2018-07-04T13:17:15.207Z,390
2018-07-04T13:18:14.946Z,385
2018-07-04T13:19:14.989Z,380
2018-07-04T13:20:15.456Z,370
2018-07-04T13:21:14.943Z,370
2018-07-04T13:22:15.203Z,360
2018-07-04T13:23:15.470Z,355
2018-07-04T13:24:15.511Z,355
2018-07-04T13:25:15.473Z,355
2018-07-04T13:26:15.470Z,350
2018-07-04T13:27:15.490Z,345
2018-07-04T13:28:15.743Z,340
2018-07-04T13:29:15.494Z,335
2018-07-04T13:30:15.745Z,335
2018-07-04T13:31:15.271Z,335
2018-07-04T13:32:15.929Z,320
2018-07-04T13:33:15.522Z,325
2018-07-04T13:34:15.526Z,315
2018-07-04T13:35:15.532Z,315
2018-07-04T13:36:15.284Z,320
2018-07-04T13:37:15.314Z,325
2018-07-04T13:38:15.280Z,325
2018-07-04T13:39:15.804Z,335
2018-07-04T13:40:15.329Z,340
2018-07-04T13:41:15.582Z,335
2018-07-04T13:42:15.089Z,330
2018-07-04T13:43:15.581Z,330
2018-07-04T13:44:16.170Z,330
2018-07-04T13:45:15.367Z,340
2018-07-04T13:46:15.108Z,340
2018-07-04T13:47:15.373Z,340
2018-07-04T13:48:15.369Z,340
2018-07-04T13:49:15.223Z,345
2018-07-04T13:50:15.899Z,345
2018-07-04T13:51:15.389Z,345
2018-07-04T13:52:15.429Z,335
2018-07-04T13:53:15.649Z,340
2018-07-04T13:54:15.387Z,345
2018-07-04T13:55:15.727Z,355
2018-07-04T13:56:15.682Z,340
2018-07-04T13:57:15.423Z,370
2018-07-04T13:58:15.694Z,370
2018-07-04T13:59:15.715Z,325
2018-07-04T14:00:15.443Z,325
2018-07-04T14:01:15.705Z,320
2018-07-04T14:02:15.715Z,315
2018-07-04T14:03:16.179Z,315
2018-07-04T14:04:16.496Z,310
2018-07-04T14:05:15.747Z,315
2018-07-04T14:06:15.723Z,315
2018-07-04T14:07:15.243Z,315
2018-07-04T14:08:15.246Z,315
2018-07-04T14:09:15.023Z,315
2018-07-04T14:10:15.964Z,315
2018-07-04T14:11:16.013Z,310
2018-07-04T14:12:15.045Z,310
2018-07-04T14:13:15.528Z,310
2018-07-04T14:14:15.793Z,310
2018-07-04T14:15:15.782Z,305
2018-07-04T14:16:15.551Z,300
2018-07-04T14:17:15.805Z,295
2018-07-04T14:18:15.554Z,290
2018-07-04T14:19:15.559Z,285
2018-07-04T14:20:16.072Z,270
2018-07-04T14:21:15.841Z,260
2018-07-04T14:22:15.584Z,245
2018-07-04T14:23:15.589Z,235
2018-07-04T14:24:16.120Z,220
2018-07-04T14:25:15.859Z,205
2018-07-04T14:26:15.864Z,195
2018-07-04T14:27:15.878Z,185
2018-07-04T14:28:15.617Z,165
2018-07-04T14:29:15.920Z,155
2018-07-04T14:30:16.149Z,145
2018-07-04T14:31:15.634Z,140
2018-07-04T14:32:16.152Z,135
2018-07-04T14:33:15.918Z,135
2018-07-04T14:34:15.920Z,135
2018-07-04T14:35:15.671Z,130
2018-07-04T14:36:15.927Z,125
2018-07-04T14:37:15.939Z,130
2018-07-04T14:38:15.932Z,125
2018-07-04T14:39:15.695Z,120
2018-07-04T14:40:15.676Z,115
2018-07-04T14:41:15.953Z,115
2018-07-04T14:42:16.001Z,115
2018-07-04T14:43:15.714Z,100
2018-07-04T14:44:15.475Z,100